createdAt,value
2023-01-22T00:06:48.301Z,-0.34
2023-01-22T00:16:54.101Z,-0.33
2023-01-22T00:27:00.047Z,-0.33
2023-01-22T00:37:05.844Z,-0.34
2023-01-22T00:47:11.708Z,-0.31
2023-01-22T00:57:21.806Z,-0.25
2023-01-22T01:07:27.948Z,-0.24
2023-01-22T01:17:33.811Z,-0.25
2023-01-22T01:27:39.724Z,-0.29
2023-01-22T01:37:45.502Z,-0.28
2023-01-22T01:47:54.676Z,-0.26
2023-01-22T01:58:06.213Z,-0.25
2023-01-22T02:08:12.484Z,-0.29
2023-01-22T02:18:18.425Z,-0.32
2023-01-22T02:28:24.693Z,-0.34
2023-01-22T02:38:30.499Z,-0.36
2023-01-22T02:48:36.438Z,-0.39
2023-01-22T02:58:42.426Z,-0.39
2023-01-22T03:08:48.447Z,-0.37
2023-01-22T03:19:11.833Z,-0.39
2023-01-22T03:29:17.743Z,-0.39
2023-01-22T03:39:23.672Z,-0.39
2023-01-22T03:49:29.572Z,-0.38
2023-01-22T03:59:35.489Z,-0.40
2023-01-22T04:09:41.269Z,-0.37
2023-01-22T04:19:47.178Z,-0.35
2023-01-22T04:29:52.984Z,-0.37
2023-01-22T04:39:58.611Z,-0.39
2023-01-22T04:50:04.995Z,-0.43
2023-01-22T05:00:14.330Z,-0.46
2023-01-22T05:10:21.216Z,-0.46
2023-01-22T05:20:27.562Z,-0.44
2023-01-22T05:30:33.224Z,-0.44
2023-01-22T05:40:39.231Z,-0.45
2023-01-22T05:50:45.020Z,-0.47
2023-01-22T06:00:53.056Z,-0.47
2023-01-22T06:11:06.351Z,-0.46
2023-01-22T06:21:11.992Z,-0.46
2023-01-22T06:31:17.888Z,-0.46
2023-01-22T06:41:24.323Z,-0.42
2023-01-22T06:51:31.931Z,-0.41
2023-01-22T07:01:37.918Z,-0.38
2023-01-22T07:11:43.823Z,-0.37
2023-01-22T07:21:49.803Z,-0.33
2023-01-22T07:31:55.374Z,-0.28
2023-01-22T07:42:01.666Z,-0.24
2023-01-22T07:52:07.760Z,-0.20
2023-01-22T08:02:15.665Z,-0.18
2023-01-22T08:12:21.720Z,-0.11
2023-01-22T08:22:27.557Z,-0.04
2023-01-22T08:32:33.307Z,0.02
2023-01-22T08:42:39.205Z,0.11
2023-01-22T08:52:44.832Z,0.16
2023-01-22T09:02:50.671Z,0.16
2023-01-22T09:12:59.427Z,0.18
2023-01-22T09:23:05.445Z,0.27
2023-01-22T09:33:11.350Z,0.31
2023-01-22T09:43:28.836Z,0.32
2023-01-22T09:53:36.040Z,0.34
2023-01-22T10:03:45.763Z,0.40
2023-01-22T10:13:55.482Z,0.45
2023-01-22T10:24:01.885Z,0.49
2023-01-22T10:34:15.484Z,0.65
2023-01-22T10:44:24.073Z,0.71
2023-01-22T10:54:34.033Z,0.78
2023-01-22T11:04:39.879Z,0.86
2023-01-22T11:14:47.035Z,0.92
2023-01-22T11:24:52.979Z,1.09
2023-01-22T11:35:11.612Z,1.09
2023-01-22T11:45:37.793Z,0.76
2023-01-22T11:56:10.837Z,0.73
2023-01-22T12:06:36.732Z,0.66
2023-01-22T12:16:51.241Z,0.55
2023-01-22T12:27:02.850Z,0.49
2023-01-22T12:37:13.423Z,0.47
2023-01-22T12:47:22.865Z,0.47
2023-01-22T12:57:37.975Z,0.43
2023-01-22T13:07:43.813Z,0.36
2023-01-22T13:18:06.516Z,0.25
2023-01-22T13:28:18.959Z,0.20
2023-01-22T13:38:26.534Z,0.17
2023-01-22T13:48:32.803Z,0.09
2023-01-22T13:58:49.365Z,0.11
2023-01-22T14:08:57.204Z,0.12
2023-01-22T14:19:04.939Z,0.14
2023-01-22T14:29:10.956Z,0.10
2023-01-22T14:39:18.751Z,0.07
2023-01-22T14:49:24.940Z,0.02
2023-01-22T14:59:30.862Z,-0.04
2023-01-22T15:09:36.742Z,-0.10
2023-01-22T15:19:42.494Z,-0.16
2023-01-22T15:29:49.488Z,-0.17
2023-01-22T15:39:55.353Z,-0.25
2023-01-22T15:50:01.308Z,-0.26
2023-01-22T16:00:11.470Z,-0.29
2023-01-22T16:10:17.993Z,-0.30
2023-01-22T16:20:24.187Z,-0.33
2023-01-22T16:30:30.170Z,-0.34
2023-01-22T16:40:36.110Z,-0.37
2023-01-22T16:50:41.912Z,-0.40
2023-01-22T17:00:49.671Z,-0.43
2023-01-22T17:10:55.752Z,-0.45
2023-01-22T17:21:06.648Z,-0.46
2023-01-22T17:31:15.484Z,-0.50
2023-01-22T17:41:23.282Z,-0.50
2023-01-22T17:51:30.407Z,-0.52
2023-01-22T18:01:38.967Z,-0.54
2023-01-22T18:11:45.411Z,-0.57
2023-01-22T18:21:50.401Z,-0.60
2023-01-22T18:31:56.337Z,-0.59
2023-01-22T18:42:02.344Z,-0.56
2023-01-22T18:52:08.379Z,-0.52
2023-01-22T19:02:17.416Z,-0.50
2023-01-22T19:12:23.306Z,-0.46
2023-01-22T19:22:29.083Z,-0.45
2023-01-22T19:32:37.941Z,-0.45
2023-01-22T19:42:46.820Z,-0.44
2023-01-22T19:52:52.510Z,-0.44
2023-01-22T20:02:58.140Z,-0.42
2023-01-22T20:13:03.903Z,-0.43
2023-01-22T20:23:09.967Z,-0.45
2023-01-22T20:33:15.834Z,-0.46
2023-01-22T20:43:22.081Z,-0.52
2023-01-22T20:53:29.975Z,-0.53
2023-01-22T21:03:36.402Z,-0.56
2023-01-22T21:13:42.598Z,-0.58
2023-01-22T21:23:49.918Z,-0.60
2023-01-22T21:34:02.587Z,-0.60
2023-01-22T21:44:28.649Z,-0.65
2023-01-22T21:54:36.741Z,-0.65
2023-01-22T22:04:42.816Z,-0.65
2023-01-22T22:14:48.731Z,-0.65
2023-01-22T22:24:55.079Z,-0.65
2023-01-22T22:35:00.832Z,-0.62
2023-01-22T22:45:07.856Z,-0.62
2023-01-22T22:55:13.800Z,-0.63
2023-01-22T23:05:19.930Z,-0.67
2023-01-22T23:15:27.705Z,-0.67
2023-01-22T23:25:33.676Z,-0.69
2023-01-22T23:35:39.548Z,-0.71
2023-01-22T23:45:45.385Z,-0.74
2023-01-22T23:55:51.052Z,-0.76
